createdAt,value
2024-01-31T00:00:27.956Z,103469.00
2024-01-31T00:02:54.403Z,103468.16
2024-01-31T00:05:21.118Z,103474.31
2024-01-31T00:07:47.895Z,103479.59
2024-01-31T00:10:14.600Z,103498.16
2024-01-31T00:12:41.287Z,103497.31
2024-01-31T00:15:08.012Z,103501.66
2024-01-31T00:17:34.494Z,103507.81
2024-01-31T00:20:01.107Z,103516.63
2024-01-31T00:22:28.019Z,103510.47
2024-01-31T00:24:54.568Z,103514.88
2024-01-31T00:27:21.101Z,103520.16
2024-01-31T00:29:47.776Z,103521.06
2024-01-31T00:32:14.219Z,103516.66
2024-01-31T00:34:40.714Z,103508.75
2024-01-31T00:37:07.318Z,103507.91
2024-01-31T00:39:34.354Z,103510.56
2024-01-31T00:42:01.119Z,103519.41
2024-01-31T00:44:28.100Z,103520.28
2024-01-31T00:46:55.046Z,103521.09
2024-01-31T00:49:25.831Z,103522.88
2024-01-31T00:51:53.302Z,103524.66
2024-01-31T00:54:19.939Z,103529.03
2024-01-31T00:56:46.380Z,103522.88
2024-01-31T00:59:12.874Z,103520.25
2024-01-31T01:01:39.725Z,103529.06
2024-01-31T01:04:08.792Z,103537.91
2024-01-31T01:06:35.783Z,103541.44
2024-01-31T01:09:02.644Z,103529.09
2024-01-31T01:11:32.230Z,103533.47
2024-01-31T01:13:58.929Z,103524.66
2024-01-31T01:16:25.564Z,103529.06
2024-01-31T01:18:52.060Z,103529.09
2024-01-31T01:21:18.563Z,103532.59
2024-01-31T01:23:45.032Z,103529.06
2024-01-31T01:26:13.721Z,103529.94
2024-01-31T01:28:40.351Z,103529.97
2024-01-31T01:31:07.254Z,103524.69
2024-01-31T01:33:34.043Z,103523.78
2024-01-31T01:36:00.713Z,103533.50
2024-01-31T01:38:27.227Z,103522.94
2024-01-31T01:40:53.886Z,103522.06
2024-01-31T01:43:21.852Z,103521.16
2024-01-31T01:45:49.199Z,103529.09
2024-01-31T01:48:19.762Z,103518.56
2024-01-31T01:50:46.795Z,103523.00
2024-01-31T01:53:13.943Z,103515.97
2024-01-31T01:55:43.176Z,103526.53
2024-01-31T01:58:10.397Z,103517.72
2024-01-31T02:00:37.980Z,103509.78
2024-01-31T02:03:06.513Z,103506.25
2024-01-31T02:05:33.358Z,103507.13
2024-01-31T02:08:00.787Z,103508.84
2024-01-31T02:10:27.286Z,103515.88
2024-01-31T02:12:54.240Z,103521.19
2024-01-31T02:15:20.931Z,103517.69
2024-01-31T02:17:47.692Z,103519.47
2024-01-31T02:20:17.585Z,103519.44
2024-01-31T02:22:48.379Z,103514.16
2024-01-31T02:25:15.500Z,103519.41
2024-01-31T02:27:42.153Z,103516.81
2024-01-31T02:30:09.334Z,103513.28
2024-01-31T02:32:37.139Z,103515.03
2024-01-31T02:35:04.067Z,103513.28
2024-01-31T02:37:30.557Z,103500.09
2024-01-31T02:39:57.296Z,103500.09
2024-01-31T02:42:24.410Z,103502.75
2024-01-31T02:44:50.952Z,103497.47
2024-01-31T02:47:17.585Z,103501.88
2024-01-31T02:49:44.134Z,103489.50
2024-01-31T02:52:10.833Z,103490.38
2024-01-31T02:54:37.655Z,103488.72
2024-01-31T02:57:04.500Z,103488.69
2024-01-31T02:59:30.958Z,103479.94
2024-01-31T03:01:58.005Z,103492.28
2024-01-31T03:04:24.567Z,103484.41
2024-01-31T03:06:51.425Z,103476.47
2024-01-31T03:09:17.930Z,103468.53
2024-01-31T03:11:44.389Z,103471.19
2024-01-31T03:14:10.937Z,103473.78
2024-01-31T03:16:41.699Z,103468.53
2024-01-31T03:19:08.748Z,103466.72
2024-01-31T03:21:35.525Z,103470.22
2024-01-31T03:24:02.073Z,103468.53
2024-01-31T03:26:28.605Z,103464.13
2024-01-31T03:28:55.672Z,103469.44
2024-01-31T03:31:22.526Z,103465.00
2024-01-31T03:33:49.505Z,103468.50
2024-01-31T03:36:16.273Z,103467.59
2024-01-31T03:38:42.884Z,103462.31
2024-01-31T03:41:09.474Z,103461.41
2024-01-31T03:43:36.811Z,103460.50
2024-01-31T03:46:07.408Z,103456.13
2024-01-31T03:48:34.382Z,103453.53
2024-01-31T03:51:01.561Z,103450.03
2024-01-31T03:53:28.238Z,103438.53
2024-01-31T03:55:54.856Z,103438.50
2024-01-31T03:58:21.526Z,103439.41
2024-01-31T04:00:48.308Z,103437.69
2024-01-31T04:03:16.137Z,103427.13
2024-01-31T04:05:43.894Z,103436.88
2024-01-31T04:08:10.581Z,103439.47
2024-01-31T04:10:38.574Z,103437.81
2024-01-31T04:13:05.993Z,103437.81
2024-01-31T04:15:32.592Z,103435.16
2024-01-31T04:17:59.495Z,103437.81
2024-01-31T04:20:26.211Z,103443.91
2024-01-31T04:22:52.721Z,103438.66
2024-01-31T04:25:19.253Z,103440.47
2024-01-31T04:27:45.973Z,103443.09
2024-01-31T04:30:13.084Z,103438.69
2024-01-31T04:32:39.832Z,103438.69
2024-01-31T04:35:10.292Z,103443.13
2024-01-31T04:37:36.950Z,103444.00
2024-01-31T04:40:04.425Z,103447.56
2024-01-31T04:42:30.936Z,103443.16
2024-01-31T04:44:57.705Z,103442.28
2024-01-31T04:47:26.866Z,103436.13
2024-01-31T04:49:54.611Z,103428.19
2024-01-31T04:52:21.303Z,103427.31
2024-01-31T04:54:47.940Z,103430.81
2024-01-31T04:57:14.496Z,103429.91
2024-01-31T04:59:41.415Z,103433.41
2024-01-31T05:02:08.592Z,103434.31
2024-01-31T05:04:36.712Z,103436.97
2024-01-31T05:07:03.973Z,103429.88
2024-01-31T05:09:30.739Z,103435.16
2024-01-31T05:11:57.380Z,103436.03
2024-01-31T05:14:24.480Z,103436.06
2024-01-31T05:16:51.617Z,103429.03
2024-01-31T05:19:18.402Z,103438.72
2024-01-31T05:21:46.677Z,103431.72
2024-01-31T05:24:14.535Z,103431.69
2024-01-31T05:26:41.984Z,103426.41
2024-01-31T05:29:08.478Z,103430.81
2024-01-31T05:31:35.035Z,103429.94
2024-01-31T05:34:01.710Z,103422.88
2024-01-31T05:36:28.423Z,103421.16
2024-01-31T05:38:55.088Z,103418.50
2024-01-31T05:41:21.774Z,103427.28
2024-01-31T05:43:48.404Z,103434.34
2024-01-31T05:46:17.972Z,103432.59
2024-01-31T05:48:48.055Z,103422.00
2024-01-31T05:51:17.449Z,103414.94
2024-01-31T05:53:43.863Z,103414.94
2024-01-31T05:56:10.465Z,103408.78
2024-01-31T05:58:36.984Z,103405.28
2024-01-31T06:01:03.813Z,103386.78
2024-01-31T06:03:30.390Z,103396.50
2024-01-31T06:05:57.336Z,103387.69
2024-01-31T06:08:25.157Z,103392.97
2024-01-31T06:10:55.801Z,103385.91
2024-01-31T06:13:22.468Z,103374.47
2024-01-31T06:15:49.097Z,103370.91
2024-01-31T06:18:17.268Z,103375.38
2024-01-31T06:20:45.431Z,103366.56
2024-01-31T06:23:12.690Z,103371.84
2024-01-31T06:25:39.618Z,103368.34
2024-01-31T06:28:09.722Z,103357.75
2024-01-31T06:30:44.722Z,103370.06
2024-01-31T06:33:12.059Z,103371.72
2024-01-31T06:35:41.438Z,103376.09
2024-01-31T06:38:09.905Z,103397.25
2024-01-31T06:40:36.478Z,103412.19
2024-01-31T06:43:03.283Z,103415.75
2024-01-31T06:45:29.830Z,103423.66
2024-01-31T06:47:56.403Z,103438.56
2024-01-31T06:50:23.156Z,103437.75
2024-01-31T06:52:49.916Z,103446.53
2024-01-31T06:55:16.783Z,103463.25
2024-01-31T06:57:43.623Z,103464.16
2024-01-31T07:00:16.459Z,103468.53
2024-01-31T07:02:43.300Z,103472.91
2024-01-31T07:05:10.093Z,103484.38
2024-01-31T07:07:36.786Z,103483.50
2024-01-31T07:10:04.059Z,103483.50
2024-01-31T07:12:30.772Z,103491.38
2024-01-31T07:14:57.359Z,103494.91
2024-01-31T07:17:24.294Z,103496.69
2024-01-31T07:19:50.987Z,103506.38
2024-01-31T07:22:17.687Z,103505.50
2024-01-31T07:24:45.237Z,103500.25
2024-01-31T07:27:11.732Z,103503.75
2024-01-31T07:29:38.224Z,103502.00
2024-01-31T07:32:05.030Z,103500.28
2024-01-31T07:34:31.730Z,103498.47
2024-01-31T07:36:58.558Z,103498.47
2024-01-31T07:39:25.045Z,103498.44
2024-01-31T07:41:51.914Z,103501.09
2024-01-31T07:44:18.481Z,103488.75
2024-01-31T07:46:45.095Z,103488.75
2024-01-31T07:49:12.675Z,103486.97
2024-01-31T07:51:43.771Z,103479.94
2024-01-31T07:54:10.439Z,103484.31
2024-01-31T07:56:37.304Z,103485.19
2024-01-31T07:59:04.516Z,103488.72
2024-01-31T08:01:31.138Z,103484.31
2024-01-31T08:03:57.860Z,103486.06
2024-01-31T08:06:24.716Z,103480.78
2024-01-31T08:09:00.030Z,103485.16
2024-01-31T08:11:28.615Z,103479.88
2024-01-31T08:13:55.210Z,103479.84
2024-01-31T08:16:21.717Z,103486.00
2024-01-31T08:18:48.236Z,103480.66
2024-01-31T08:21:14.731Z,103463.97
2024-01-31T08:23:41.357Z,103470.94
2024-01-31T08:26:08.680Z,103456.00
2024-01-31T08:28:35.311Z,103451.59
2024-01-31T08:31:02.014Z,103452.50
2024-01-31T08:33:28.543Z,103439.28
2024-01-31T08:35:55.093Z,103439.25
2024-01-31T08:38:21.822Z,103435.78
2024-01-31T08:40:48.328Z,103437.50
2024-01-31T08:43:15.316Z,103433.06
2024-01-31T08:45:41.881Z,103433.94
2024-01-31T08:48:09.168Z,103433.06
2024-01-31T08:50:35.652Z,103421.59
2024-01-31T08:53:02.340Z,103423.38
2024-01-31T08:55:28.902Z,103412.78
2024-01-31T08:57:55.515Z,103413.66
2024-01-31T09:00:22.233Z,103403.97
2024-01-31T09:02:48.910Z,103398.66
2024-01-31T09:05:15.569Z,103397.75
2024-01-31T09:07:42.344Z,103404.75
2024-01-31T09:10:08.940Z,103394.16
2024-01-31T09:12:35.472Z,103401.16
2024-01-31T09:15:02.436Z,103400.25
2024-01-31T09:17:29.021Z,103395.84
2024-01-31T09:19:55.557Z,103388.72
2024-01-31T09:22:22.165Z,103382.50
2024-01-31T09:24:48.719Z,103378.97
2024-01-31T09:27:16.552Z,103387.75
2024-01-31T09:29:44.485Z,103384.19
2024-01-31T09:32:11.251Z,103386.72
2024-01-31T09:34:37.815Z,103396.22
2024-01-31T09:37:04.446Z,103400.59
2024-01-31T09:39:32.044Z,103395.97
2024-01-31T09:41:58.839Z,103404.00
2024-01-31T09:44:26.423Z,103403.09
2024-01-31T09:46:54.051Z,103398.56
2024-01-31T09:49:20.817Z,103388.00
2024-01-31T09:51:48.132Z,103391.59
2024-01-31T09:54:14.870Z,103391.59
2024-01-31T09:56:41.650Z,103394.09
2024-01-31T09:59:09.386Z,103401.81
2024-01-31T10:01:37.618Z,103399.34
2024-01-31T10:04:04.535Z,103396.75
2024-01-31T10:06:31.295Z,103404.72
2024-01-31T10:08:59.034Z,103404.63
2024-01-31T10:11:27.129Z,103408.06
2024-01-31T10:13:54.941Z,103404.53
2024-01-31T10:16:21.764Z,103407.22
2024-01-31T10:18:48.351Z,103405.34
2024-01-31T10:21:20.868Z,103411.50
2024-01-31T10:24:01.073Z,103411.50
2024-01-31T10:26:28.633Z,103406.16
2024-01-31T10:29:07.850Z,103406.16
2024-01-31T10:31:37.808Z,103396.47
2024-01-31T10:34:05.521Z,103396.47
2024-01-31T10:39:02.672Z,103391.19
2024-01-31T10:41:30.471Z,103387.63
2024-01-31T10:44:02.192Z,103370.88
2024-01-31T10:46:29.774Z,103369.13
2024-01-31T10:48:57.068Z,103370.03
2024-01-31T10:51:25.193Z,103362.97
2024-01-31T10:53:53.787Z,103349.72
2024-01-31T10:56:22.111Z,103360.31
2024-01-31T10:58:48.774Z,103347.06
2024-01-31T11:01:16.023Z,103337.41
2024-01-31T11:03:49.972Z,103334.72
2024-01-31T11:06:17.798Z,103335.63
2024-01-31T11:08:45.472Z,103323.22
2024-01-31T11:11:12.324Z,103301.13
2024-01-31T11:13:39.103Z,103300.25
2024-01-31T11:16:06.452Z,103288.81
2024-01-31T11:18:36.516Z,103279.09
2024-01-31T11:21:08.066Z,103271.16
2024-01-31T11:23:34.732Z,103267.59
2024-01-31T11:26:03.417Z,103262.34
2024-01-31T11:28:30.082Z,103252.63
2024-01-31T11:30:56.553Z,103249.00
2024-01-31T11:33:23.892Z,103242.78
2024-01-31T11:35:51.326Z,103234.84
2024-01-31T11:38:18.772Z,103227.75
2024-01-31T11:40:45.517Z,103236.50
2024-01-31T11:43:12.115Z,103227.69
2024-01-31T11:45:39.997Z,103213.50
2024-01-31T11:48:06.950Z,103214.34
2024-01-31T11:50:36.506Z,103209.03
2024-01-31T11:53:03.283Z,103208.06
2024-01-31T11:55:31.421Z,103209.78
2024-01-31T11:57:58.404Z,103194.75
2024-01-31T12:00:26.070Z,103186.75
2024-01-31T12:02:53.961Z,103184.97
2024-01-31T12:05:20.838Z,103174.31
2024-01-31T12:08:00.416Z,103172.53
2024-01-31T12:10:27.845Z,103162.84
2024-01-31T12:12:57.010Z,103163.72
2024-01-31T12:15:24.710Z,103159.28
2024-01-31T12:17:51.539Z,103161.06
2024-01-31T12:20:18.331Z,103157.47
2024-01-31T12:22:47.965Z,103159.22
2024-01-31T12:25:15.391Z,103150.44
2024-01-31T12:27:42.262Z,103154.78
2024-01-31T12:30:09.254Z,103160.94
2024-01-31T12:32:36.190Z,103155.66
2024-01-31T12:35:03.155Z,103151.22
2024-01-31T12:37:30.187Z,103146.78
2024-01-31T12:39:56.764Z,103149.41
2024-01-31T12:42:23.870Z,103152.06
2024-01-31T12:44:51.111Z,103154.69
2024-01-31T12:47:17.792Z,103141.47
2024-01-31T12:49:45.018Z,103141.47
2024-01-31T12:52:12.959Z,103137.97
2024-01-31T12:54:39.847Z,103127.38
2024-01-31T12:57:06.533Z,103140.63
2024-01-31T12:59:33.597Z,103126.50
2024-01-31T13:02:00.301Z,103126.50
2024-01-31T13:04:26.931Z,103133.59
2024-01-31T13:06:54.903Z,103118.59
2024-01-31T13:09:22.087Z,103123.88
2024-01-31T13:11:48.775Z,103105.41
2024-01-31T13:14:16.218Z,103101.84
2024-01-31T13:16:51.036Z,103099.22
2024-01-31T13:19:26.371Z,103093.03
2024-01-31T13:21:54.164Z,103086.88
2024-01-31T13:24:21.439Z,103093.03
2024-01-31T13:26:48.338Z,103085.94
2024-01-31T13:29:15.221Z,103081.28
2024-01-31T13:31:41.988Z,103081.84
2024-01-31T13:34:09.016Z,103085.28
2024-01-31T13:36:35.852Z,103077.41
2024-01-31T13:39:04.012Z,103074.03
2024-01-31T13:41:30.847Z,103059.94
2024-01-31T13:43:57.483Z,103058.22
2024-01-31T13:46:23.924Z,103054.69
2024-01-31T13:48:50.593Z,103052.06
2024-01-31T13:51:18.473Z,103052.06
2024-01-31T13:53:45.263Z,103048.56
2024-01-31T13:56:11.993Z,103040.63
2024-01-31T13:58:38.564Z,103037.97
2024-01-31T14:01:05.299Z,103029.09
2024-01-31T14:03:31.927Z,103024.66
2024-01-31T14:05:58.656Z,103020.28
2024-01-31T14:08:25.376Z,103007.91
2024-01-31T14:10:52.096Z,103011.44
2024-01-31T14:13:18.616Z,103016.72
2024-01-31T14:15:45.100Z,103005.25
2024-01-31T14:18:13.640Z,103004.31
2024-01-31T14:20:42.071Z,102992.88
2024-01-31T14:23:23.749Z,102977.84
2024-01-31T14:25:55.690Z,102982.19
2024-01-31T14:28:22.267Z,102978.63
2024-01-31T14:30:48.734Z,102985.72
2024-01-31T14:33:15.737Z,102986.56
2024-01-31T14:35:42.452Z,102975.97
2024-01-31T14:38:08.967Z,102964.53
2024-01-31T14:40:35.570Z,102985.69
2024-01-31T14:43:02.118Z,102992.72
2024-01-31T14:45:28.575Z,102988.28
2024-01-31T14:47:55.438Z,102982.06
2024-01-31T14:50:22.620Z,102980.25
2024-01-31T14:52:49.319Z,102980.31
2024-01-31T14:55:15.810Z,102973.19
2024-01-31T14:57:42.632Z,102974.06
2024-01-31T15:00:09.734Z,102966.06
2024-01-31T15:02:36.368Z,102957.25
2024-01-31T15:05:03.280Z,102956.34
2024-01-31T15:07:31.122Z,102947.53
2024-01-31T15:09:58.128Z,102945.81
2024-01-31T15:12:24.839Z,102939.63
2024-01-31T15:14:51.668Z,102942.28
2024-01-31T15:17:18.553Z,102944.00
2024-01-31T15:19:49.915Z,102938.72
2024-01-31T15:22:17.274Z,102940.44
2024-01-31T15:24:44.140Z,102943.94
2024-01-31T15:27:10.946Z,102921.78
2024-01-31T15:29:37.626Z,102926.25
2024-01-31T15:32:04.537Z,102930.63
2024-01-31T15:34:31.293Z,102944.63
2024-01-31T15:37:00.003Z,102940.28
2024-01-31T15:39:26.524Z,102932.38
2024-01-31T15:41:53.435Z,102932.41
2024-01-31T15:44:23.576Z,102933.34
2024-01-31T15:46:50.840Z,102925.50
2024-01-31T15:49:17.530Z,102910.59
2024-01-31T15:51:47.321Z,102914.13
2024-01-31T15:54:15.632Z,102899.16
2024-01-31T15:56:42.201Z,102895.66
2024-01-31T15:59:08.936Z,102895.75
2024-01-31T16:01:35.599Z,102896.59
2024-01-31T16:04:02.236Z,102891.38
2024-01-31T16:06:29.180Z,102892.25
2024-01-31T16:08:57.796Z,102892.31
2024-01-31T16:11:26.483Z,102889.69
2024-01-31T16:13:53.242Z,102882.66
2024-01-31T16:16:19.929Z,102879.19
2024-01-31T16:18:46.969Z,102878.38
2024-01-31T16:21:14.036Z,102876.59
2024-01-31T16:23:41.098Z,102874.03
2024-01-31T16:26:08.761Z,102879.25
2024-01-31T16:28:35.652Z,102860.78
2024-01-31T16:31:04.380Z,102855.50
2024-01-31T16:33:31.482Z,102852.03
2024-01-31T16:35:59.822Z,102846.72
2024-01-31T16:38:26.838Z,102845.88
2024-01-31T16:40:53.400Z,102822.97
2024-01-31T16:43:20.046Z,102814.19
2024-01-31T16:45:46.870Z,102806.31
2024-01-31T16:48:13.704Z,102792.28
2024-01-31T16:50:40.473Z,102785.22
2024-01-31T16:53:07.041Z,102786.16
2024-01-31T16:55:33.676Z,102784.41
2024-01-31T16:58:00.331Z,102782.66
2024-01-31T17:00:27.047Z,102787.03
2024-01-31T17:02:55.381Z,102792.34
2024-01-31T17:05:22.278Z,102798.56
2024-01-31T17:07:48.781Z,102808.28
2024-01-31T17:10:15.489Z,102814.44
2024-01-31T17:12:44.430Z,102818.81
2024-01-31T17:15:11.860Z,102813.50
2024-01-31T17:17:38.813Z,102818.81
2024-01-31T17:20:06.342Z,102817.09
2024-01-31T17:22:32.791Z,102825.88
2024-01-31T17:24:59.486Z,102823.28
2024-01-31T17:27:25.967Z,102807.41
2024-01-31T17:29:52.532Z,102810.94
2024-01-31T17:32:19.130Z,102814.50
2024-01-31T17:34:46.232Z,102810.94
2024-01-31T17:37:13.099Z,102810.09
2024-01-31T17:39:39.600Z,102815.38
2024-01-31T17:42:06.572Z,102821.59
2024-01-31T17:44:35.441Z,102805.78
2024-01-31T17:47:02.411Z,102811.09
2024-01-31T17:49:29.056Z,102802.22
2024-01-31T17:51:56.006Z,102804.84
2024-01-31T17:54:22.584Z,102797.78
2024-01-31T17:56:51.595Z,102787.22
2024-01-31T17:59:18.298Z,102785.47
2024-01-31T18:01:44.976Z,102782.84
2024-01-31T18:04:11.685Z,102773.16
2024-01-31T18:06:38.659Z,102774.91
2024-01-31T18:09:10.554Z,102764.38
2024-01-31T18:11:38.411Z,102761.75
2024-01-31T18:14:04.928Z,102774.13
2024-01-31T18:16:31.375Z,102759.97
2024-01-31T18:19:03.025Z,102756.47
2024-01-31T18:21:36.989Z,102749.53
2024-01-31T18:24:04.243Z,102738.09
2024-01-31T18:26:31.065Z,102734.53
2024-01-31T18:28:59.235Z,102729.31
2024-01-31T18:31:26.937Z,102733.66
2024-01-31T18:33:57.936Z,102732.81
2024-01-31T18:36:24.720Z,102708.13
2024-01-31T18:38:52.374Z,102701.91
2024-01-31T18:41:19.619Z,102705.41
2024-01-31T18:43:48.988Z,102698.31
2024-01-31T18:46:15.825Z,102695.66
2024-01-31T18:48:44.844Z,102685.13
2024-01-31T18:51:11.831Z,102670.94
2024-01-31T18:54:06.027Z,102672.72
2024-01-31T18:56:48.913Z,102654.19
2024-01-31T18:59:24.639Z,102651.59
2024-01-31T19:01:55.471Z,102665.63
2024-01-31T19:07:02.977Z,102648.91
2024-01-31T19:07:27.826Z,102643.56
2024-01-31T19:09:55.867Z,102636.50
2024-01-31T19:12:34.469Z,102635.66
2024-01-31T19:15:15.771Z,102633.00
2024-01-31T19:18:34.173Z,102640.94
2024-01-31T19:20:34.097Z,102641.81
2024-01-31T19:23:06.034Z,102633.00
2024-01-31T19:25:58.369Z,102624.22
2024-01-31T19:28:33.889Z,102630.44
2024-01-31T19:31:13.926Z,102645.47
2024-01-31T19:33:40.747Z,102649.00
2024-01-31T19:36:12.489Z,102646.31
2024-01-31T19:38:43.463Z,102638.41
2024-01-31T19:41:10.251Z,102638.41
2024-01-31T19:43:49.327Z,102622.53
2024-01-31T19:46:28.474Z,102606.66
2024-01-31T19:48:56.593Z,102597.00
2024-01-31T19:51:23.325Z,102605.88
2024-01-31T19:53:52.428Z,102605.00
2024-01-31T19:56:21.421Z,102603.25
2024-01-31T19:58:49.651Z,102593.59
2024-01-31T20:01:16.632Z,102575.94
2024-01-31T20:03:43.566Z,102571.50
2024-01-31T20:06:31.392Z,102569.75
2024-01-31T20:09:03.093Z,102556.53
2024-01-31T20:11:30.728Z,102568.84
2024-01-31T20:14:18.819Z,102564.47
2024-01-31T20:17:08.908Z,102555.63
2024-01-31T20:20:11.790Z,102561.75
2024-01-31T20:22:44.342Z,102553.88
2024-01-31T20:25:26.865Z,102560.91
2024-01-31T20:27:54.771Z,102564.41
2024-01-31T20:30:22.391Z,102545.69
2024-01-31T20:32:52.400Z,102540.41
2024-01-31T20:35:32.024Z,102535.09
2024-01-31T20:38:18.059Z,102532.44
2024-01-31T20:40:44.783Z,102534.19
2024-01-31T20:43:18.890Z,102538.59
2024-01-31T20:45:54.055Z,102544.72
2024-01-31T20:48:36.903Z,102547.28
2024-01-31T20:51:09.619Z,102532.25
2024-01-31T20:53:36.222Z,102533.13
2024-01-31T20:56:06.068Z,102547.25
2024-01-31T20:58:32.763Z,102536.66
2024-01-31T21:00:59.553Z,102544.59
2024-01-31T21:03:37.927Z,102538.41
2024-01-31T21:06:10.752Z,102536.66
2024-01-31T21:08:46.406Z,102531.38
2024-01-31T21:11:20.169Z,102525.19
2024-01-31T21:13:59.423Z,102526.97
2024-01-31T21:16:25.928Z,102517.06
2024-01-31T21:18:52.795Z,102510.91
2024-01-31T21:21:22.128Z,102529.44
2024-01-31T21:23:48.720Z,102515.22
2024-01-31T21:26:15.445Z,102506.34
2024-01-31T21:28:42.066Z,102528.38
2024-01-31T21:31:08.535Z,102519.47
2024-01-31T21:33:35.152Z,102516.88
2024-01-31T21:36:01.713Z,102508.78
2024-01-31T21:38:30.649Z,102517.59
2024-01-31T21:40:58.666Z,102508.78
2024-01-31T21:43:25.327Z,102499.88
2024-01-31T21:45:52.013Z,102505.06
2024-01-31T21:48:18.523Z,102499.84
2024-01-31T21:50:45.265Z,102488.25
2024-01-31T21:53:11.984Z,102490.88
2024-01-31T21:55:38.408Z,102484.66
2024-01-31T21:58:04.973Z,102468.75
2024-01-31T22:00:31.391Z,102477.53
2024-01-31T22:02:58.236Z,102468.66
2024-01-31T22:05:24.992Z,102465.13
2024-01-31T22:07:51.601Z,102450.03
2024-01-31T22:10:18.266Z,102464.94
2024-01-31T22:12:44.725Z,102450.81
2024-01-31T22:15:11.372Z,102465.72
2024-01-31T22:17:38.004Z,102463.06
2024-01-31T22:20:04.990Z,102458.69
2024-01-31T22:22:31.660Z,102451.78
2024-01-31T22:24:58.182Z,102451.78
2024-01-31T22:27:25.682Z,102452.78
2024-01-31T22:29:52.185Z,102455.50
2024-01-31T22:32:18.663Z,102446.69
2024-01-31T22:34:45.243Z,102445.03
2024-01-31T22:37:11.755Z,102443.41
2024-01-31T22:39:38.205Z,102437.38
2024-01-31T22:42:04.920Z,102438.25
2024-01-31T22:44:31.555Z,102439.22
2024-01-31T22:46:58.251Z,102441.13
2024-01-31T22:49:25.072Z,102442.94
2024-01-31T22:51:51.794Z,102443.00
2024-01-31T22:54:18.494Z,102450.09
2024-01-31T22:56:45.349Z,102443.00
2024-01-31T22:59:12.665Z,102435.94
2024-01-31T23:01:40.319Z,102440.28
2024-01-31T23:04:06.932Z,102442.94
2024-01-31T23:06:33.607Z,102440.25
2024-01-31T23:09:00.255Z,102444.63
2024-01-31T23:11:27.235Z,102442.81
2024-01-31T23:13:54.403Z,102437.50
2024-01-31T23:16:21.147Z,102445.34
2024-01-31T23:18:48.029Z,102439.13
2024-01-31T23:21:15.218Z,102440.81
2024-01-31T23:23:42.789Z,102435.53
2024-01-31T23:26:09.478Z,102438.13
2024-01-31T23:28:35.956Z,102445.16
2024-01-31T23:31:02.368Z,102444.25
2024-01-31T23:33:28.895Z,102452.09
2024-01-31T23:35:55.591Z,102453.91
2024-01-31T23:38:22.031Z,102451.19
2024-01-31T23:40:48.499Z,102456.38
2024-01-31T23:43:15.036Z,102451.06
2024-01-31T23:45:41.682Z,102455.38
2024-01-31T23:48:08.775Z,102456.28
2024-01-31T23:50:35.459Z,102458.91
2024-01-31T23:53:02.470Z,102450.03
2024-01-31T23:55:28.965Z,102441.13
2024-01-31T23:57:55.684Z,102448.09
